createdAt,value
2018-12-16T00:00:09.046Z,-7.00
2018-12-16T00:02:36.756Z,-7.00
2018-12-16T00:07:31.696Z,-6.80
2018-12-16T00:09:59.519Z,-6.70
2018-12-16T00:12:26.996Z,-6.70
2018-12-16T00:14:54.644Z,-6.60
2018-12-16T00:17:22.093Z,-6.50
2018-12-16T00:19:49.628Z,-6.50
2018-12-16T00:24:44.613Z,-6.40
2018-12-16T00:27:12.306Z,-6.30
2018-12-16T00:34:34.773Z,-6.30
2018-12-16T00:37:02.342Z,-6.40
2018-12-16T00:39:30.002Z,-6.40
2018-12-16T00:41:57.461Z,-6.40
2018-12-16T00:44:24.924Z,-6.30
2018-12-16T00:46:52.437Z,-6.30
2018-12-16T00:49:19.872Z,-6.30
2018-12-16T00:51:47.356Z,-6.30
2018-12-16T00:54:14.935Z,-6.40
2018-12-16T00:56:42.394Z,-6.60
2018-12-16T00:59:09.839Z,-6.60
2018-12-16T01:01:37.495Z,-6.70
2018-12-16T01:04:05.134Z,-6.70
2018-12-16T01:06:32.602Z,-6.70
2018-12-16T01:11:27.594Z,-6.50
2018-12-16T01:13:55.169Z,-6.50
2018-12-16T01:16:22.837Z,-6.50
2018-12-16T01:18:50.295Z,-6.60
2018-12-16T01:21:18.558Z,-6.50
2018-12-16T01:23:46.026Z,-6.40
2018-12-16T01:26:13.524Z,-6.40
2018-12-16T01:28:41.115Z,-6.50
2018-12-16T01:31:08.570Z,-6.60
2018-12-16T01:33:36.031Z,-6.60
2018-12-16T01:38:31.658Z,-6.70
2018-12-16T01:40:59.087Z,-6.60
2018-12-16T01:45:53.930Z,-6.60
2018-12-16T01:48:21.399Z,-6.50
2018-12-16T01:50:49.023Z,-6.60
2018-12-16T01:53:16.687Z,-6.70
2018-12-16T01:55:44.142Z,-6.60
2018-12-16T01:58:11.808Z,-6.50
2018-12-16T02:00:39.466Z,-6.40
2018-12-16T02:03:07.115Z,-6.30
2018-12-16T02:05:34.784Z,-6.20
2018-12-16T02:08:02.273Z,-6.10
2018-12-16T02:10:29.890Z,-6.10
2018-12-16T02:12:57.548Z,-6.10
2018-12-16T02:15:25.202Z,-6.20
2018-12-16T02:17:52.857Z,-6.20
2018-12-16T02:20:20.746Z,-6.20
2018-12-16T02:25:15.838Z,-6.20
2018-12-16T02:27:43.353Z,-6.10
2018-12-16T02:30:12.730Z,-6.10
2018-12-16T02:32:40.456Z,-6.10
2018-12-16T02:35:08.115Z,-6.10
2018-12-16T02:37:35.644Z,-6.00
2018-12-16T02:40:03.434Z,-6.00
2018-12-16T02:42:31.085Z,-6.10
2018-12-16T02:44:58.754Z,-6.10
2018-12-16T02:47:26.419Z,-6.10
2018-12-16T02:52:21.564Z,-6.00
2018-12-16T02:54:48.997Z,-6.00
2018-12-16T02:57:16.634Z,-5.90
2018-12-16T02:59:44.097Z,-5.90
2018-12-16T03:02:11.742Z,-5.90
2018-12-16T03:04:39.399Z,-5.80
2018-12-16T03:09:34.511Z,-5.90
2018-12-16T03:12:02.189Z,-5.90
2018-12-16T03:14:29.831Z,-5.80
2018-12-16T03:16:57.486Z,-5.80
2018-12-16T03:19:25.151Z,-5.90
2018-12-16T03:21:52.807Z,-5.80
2018-12-16T03:24:20.463Z,-5.80
2018-12-16T03:26:47.915Z,-5.80
2018-12-16T03:29:15.370Z,-5.80
2018-12-16T03:31:43.030Z,-5.90
2018-12-16T03:34:10.695Z,-5.90
2018-12-16T03:36:38.139Z,-5.90
2018-12-16T03:39:06.827Z,-5.90
2018-12-16T03:41:34.277Z,-5.90
2018-12-16T03:44:01.949Z,-5.90
2018-12-16T03:52:58.410Z,-5.60
2018-12-16T04:00:20.941Z,-5.50
2018-12-16T04:05:16.001Z,-5.40
2018-12-16T04:07:43.449Z,-5.40
2018-12-16T04:10:10.921Z,-5.30
2018-12-16T04:12:38.430Z,-5.30
2018-12-16T04:15:06.058Z,-5.20
2018-12-16T04:17:33.503Z,-5.20
2018-12-16T04:22:28.786Z,-5.10
2018-12-16T04:24:56.450Z,-5.20
2018-12-16T04:27:24.112Z,-5.20
2018-12-16T04:29:51.765Z,-5.30
2018-12-16T04:32:19.425Z,-5.30
2018-12-16T04:34:47.081Z,-5.40
2018-12-16T04:37:14.732Z,-5.50
2018-12-16T04:39:42.194Z,-5.60
2018-12-16T04:42:09.853Z,-5.60
2018-12-16T04:44:37.309Z,-5.60
2018-12-16T04:49:32.413Z,-5.50
2018-12-16T04:52:00.073Z,-5.60
2018-12-16T04:54:27.737Z,-5.50
2018-12-16T04:56:55.400Z,-5.50
2018-12-16T05:06:45.558Z,-5.30
2018-12-16T05:11:40.445Z,-5.30
2018-12-16T05:14:07.896Z,-5.30
2018-12-16T05:16:35.434Z,-5.30
2018-12-16T05:19:03.096Z,-5.30
2018-12-16T05:21:30.546Z,-5.40
2018-12-16T05:23:58.211Z,-5.40
2018-12-16T05:26:25.689Z,-5.30
2018-12-16T05:28:53.321Z,-5.40
2018-12-16T05:33:48.434Z,-5.20
2018-12-16T05:36:16.090Z,-5.20
2018-12-16T05:38:43.557Z,-5.30
2018-12-16T05:41:11.013Z,-5.30
2018-12-16T05:43:38.525Z,-5.20
2018-12-16T05:46:05.973Z,-5.10
2018-12-16T05:48:33.471Z,-5.10
2018-12-16T05:51:01.022Z,-5.20
2018-12-16T05:53:28.685Z,-5.20
2018-12-16T05:55:56.400Z,-5.10
2018-12-16T06:03:18.910Z,-5.10
2018-12-16T06:05:46.577Z,-5.10
2018-12-16T06:08:14.222Z,-5.10
2018-12-16T06:10:41.889Z,-5.10
2018-12-16T06:13:09.543Z,-5.00
2018-12-16T06:15:37.201Z,-5.00
2018-12-16T06:18:04.653Z,-5.10
2018-12-16T06:20:32.321Z,-5.00
2018-12-16T06:22:59.766Z,-5.00
2018-12-16T06:25:27.252Z,-5.00
2018-12-16T06:27:54.879Z,-5.10
2018-12-16T06:30:23.008Z,-5.20
2018-12-16T06:32:50.518Z,-5.20
2018-12-16T06:35:18.058Z,-5.20
2018-12-16T06:37:45.495Z,-5.30
2018-12-16T06:40:12.961Z,-5.30
2018-12-16T06:42:40.621Z,-5.30
2018-12-16T06:45:08.277Z,-5.30
2018-12-16T06:47:35.938Z,-5.30
2018-12-16T06:50:04.860Z,-5.20
2018-12-16T06:54:59.888Z,-5.00
2018-12-16T06:59:55.053Z,-4.90
2018-12-16T07:02:22.706Z,-4.90
2018-12-16T07:07:17.822Z,-4.80
2018-12-16T07:12:12.757Z,-4.80
2018-12-16T07:14:40.274Z,-4.70
2018-12-16T07:17:07.889Z,-4.70
2018-12-16T07:22:03.174Z,-4.50
2018-12-16T07:29:26.021Z,-4.40
2018-12-16T07:31:53.593Z,-4.50
2018-12-16T07:34:21.049Z,-4.50
2018-12-16T07:36:48.701Z,-4.50
2018-12-16T07:39:16.481Z,-4.50
2018-12-16T07:41:43.934Z,-4.50
2018-12-16T07:46:39.141Z,-4.30
2018-12-16T07:49:06.622Z,-4.20
2018-12-16T07:51:34.141Z,-4.10
2018-12-16T07:54:01.758Z,-4.10
2018-12-16T07:56:29.399Z,-4.10
2018-12-16T07:58:57.005Z,-4.10
2018-12-16T08:01:25.502Z,-4.20
2018-12-16T08:08:48.495Z,-4.10
2018-12-16T08:11:16.125Z,-4.00
2018-12-16T08:13:43.577Z,-3.90
2018-12-16T08:16:11.281Z,-3.90
2018-12-16T08:18:38.898Z,-3.80
2018-12-16T08:21:06.559Z,-3.70
2018-12-16T08:23:35.484Z,-3.70
2018-12-16T08:26:03.301Z,-3.70
2018-12-16T08:28:30.977Z,-3.70
2018-12-16T08:33:26.086Z,-3.50
2018-12-16T08:35:53.748Z,-3.50
2018-12-16T08:38:21.405Z,-3.40
2018-12-16T08:40:49.055Z,-3.30
2018-12-16T08:43:16.713Z,-3.30
2018-12-16T08:45:44.376Z,-3.30
2018-12-16T08:48:11.820Z,-3.30
2018-12-16T08:53:06.733Z,-3.50
2018-12-16T08:55:34.174Z,-3.60
2018-12-16T08:58:01.845Z,-3.70
2018-12-16T09:00:29.297Z,-3.60
2018-12-16T09:07:51.870Z,-3.50
2018-12-16T09:10:19.329Z,-3.60
2018-12-16T09:12:46.791Z,-3.60
2018-12-16T09:15:14.261Z,-3.60
2018-12-16T09:20:09.542Z,-3.50
2018-12-16T09:22:37.203Z,-3.50
2018-12-16T09:25:05.105Z,-3.40
2018-12-16T09:30:00.075Z,-3.30
2018-12-16T09:32:27.564Z,-3.20
2018-12-16T09:34:55.173Z,-3.00
2018-12-16T09:37:22.627Z,-2.80
2018-12-16T09:42:17.857Z,-2.60
2018-12-16T09:44:45.567Z,-2.50
2018-12-16T09:47:13.013Z,-2.50
2018-12-16T09:49:40.442Z,-2.40
2018-12-16T09:54:35.431Z,-2.20
2018-12-16T09:59:30.321Z,-2.30
2018-12-16T10:01:57.766Z,-2.40
2018-12-16T10:04:25.210Z,-2.30
2018-12-16T10:09:20.465Z,-2.40
2018-12-16T10:14:15.981Z,-2.00
2018-12-16T10:16:43.641Z,-1.90
2018-12-16T10:19:11.082Z,-1.70
2018-12-16T10:21:38.595Z,-1.70
2018-12-16T10:24:06.211Z,-1.60
2018-12-16T10:26:33.731Z,-1.60
2018-12-16T10:31:28.669Z,-1.40
2018-12-16T10:33:56.231Z,-1.40
2018-12-16T10:36:23.889Z,-1.30
2018-12-16T10:38:51.546Z,-1.30
2018-12-16T10:41:19.206Z,-1.20
2018-12-16T10:43:46.646Z,-1.20
2018-12-16T10:48:41.769Z,-1.10
2018-12-16T10:51:09.425Z,-1.00
2018-12-16T10:53:37.091Z,-1.00
2018-12-16T10:56:04.745Z,-1.00
2018-12-16T10:58:32.197Z,-1.00
2018-12-16T11:03:33.054Z,-0.90
2018-12-16T11:06:00.490Z,-1.00
2018-12-16T11:08:27.949Z,-0.90
2018-12-16T11:10:55.426Z,-0.90
2018-12-16T11:13:22.981Z,-0.90
2018-12-16T11:15:50.529Z,-0.90
2018-12-16T11:18:17.977Z,-0.70
2018-12-16T11:20:45.633Z,-0.70
2018-12-16T11:23:13.296Z,-0.60
2018-12-16T11:25:41.221Z,-0.60
2018-12-16T11:33:03.947Z,-0.30
2018-12-16T11:37:59.736Z,-0.30
2018-12-16T11:40:27.317Z,-0.30
2018-12-16T11:45:22.322Z,-0.30
2018-12-16T11:47:50.021Z,-0.30
2018-12-16T11:50:17.740Z,-0.50
2018-12-16T11:52:45.394Z,-0.70
2018-12-16T11:55:13.185Z,-0.80
2018-12-16T11:57:40.907Z,-0.90
2018-12-16T12:00:08.786Z,-0.90
2018-12-16T12:02:36.464Z,-1.00
2018-12-16T12:05:05.152Z,-1.10
2018-12-16T12:07:32.786Z,-1.00
2018-12-16T12:10:00.446Z,-1.00
2018-12-16T12:12:28.129Z,-1.00
2018-12-16T12:14:55.767Z,-0.90
2018-12-16T12:19:50.873Z,-0.70
2018-12-16T12:22:18.349Z,-0.60
2018-12-16T12:24:45.828Z,-0.60
2018-12-16T12:27:13.265Z,-0.50
2018-12-16T12:29:40.897Z,-0.50
2018-12-16T12:32:08.374Z,-0.50
2018-12-16T12:34:36.042Z,-0.50
2018-12-16T12:37:03.674Z,-0.50
2018-12-16T12:41:58.986Z,-0.30
2018-12-16T12:44:26.454Z,-0.40
2018-12-16T12:46:53.897Z,-0.40
2018-12-16T12:49:21.323Z,-0.40
2018-12-16T12:51:48.991Z,-0.20
2018-12-16T12:54:16.509Z,-0.20
2018-12-16T12:59:11.569Z,0.00
2018-12-16T13:01:39.453Z,0.00
2018-12-16T13:04:07.094Z,0.00
2018-12-16T13:09:02.169Z,0.10
2018-12-16T13:11:29.662Z,0.10
2018-12-16T13:13:57.213Z,0.10
2018-12-16T13:16:24.855Z,0.20
2018-12-16T13:18:52.429Z,0.20
2018-12-16T13:21:20.086Z,0.20
2018-12-16T13:23:47.748Z,0.10
2018-12-16T13:26:15.273Z,0.00
2018-12-16T13:28:42.857Z,0.00
2018-12-16T13:31:10.513Z,0.00
2018-12-16T13:33:38.182Z,0.10
2018-12-16T13:36:08.824Z,0.00
2018-12-16T13:41:03.781Z,-0.10
2018-12-16T13:43:31.474Z,-0.10
2018-12-16T13:45:59.139Z,0.00
2018-12-16T13:48:26.793Z,0.10
2018-12-16T13:50:54.259Z,0.10
2018-12-16T13:53:21.929Z,0.20
2018-12-16T13:55:49.401Z,0.20
2018-12-16T13:58:16.850Z,0.30
2018-12-16T14:00:44.673Z,0.30
2018-12-16T14:03:12.132Z,0.30
2018-12-16T14:05:46.489Z,0.30
2018-12-16T14:08:09.334Z,0.40
2018-12-16T14:10:36.943Z,0.40
2018-12-16T14:13:04.606Z,0.40
2018-12-16T14:15:32.071Z,0.40
2018-12-16T14:17:59.554Z,0.40
2018-12-16T14:25:22.332Z,0.50
2018-12-16T14:27:49.946Z,0.50
2018-12-16T14:30:17.606Z,0.60
2018-12-16T14:32:45.055Z,0.60
2018-12-16T14:35:13.059Z,0.60
2018-12-16T14:37:40.586Z,0.60
2018-12-16T14:40:08.858Z,0.60
2018-12-16T14:45:05.617Z,0.70
2018-12-16T14:47:33.266Z,0.70
2018-12-16T14:50:00.733Z,0.80
2018-12-16T14:52:28.194Z,0.80
2018-12-16T14:54:55.824Z,0.90
2018-12-16T14:57:23.278Z,1.00
2018-12-16T14:59:50.710Z,1.00
2018-12-16T15:02:18.392Z,1.00
2018-12-16T15:04:46.045Z,1.10
2018-12-16T15:07:13.502Z,1.10
2018-12-16T15:12:08.618Z,1.20
2018-12-16T15:14:36.373Z,1.20
2018-12-16T15:17:03.942Z,1.20
2018-12-16T15:19:31.403Z,1.20
2018-12-16T15:21:58.845Z,1.10
2018-12-16T15:26:53.945Z,1.10
2018-12-16T15:29:21.611Z,1.10
2018-12-16T15:31:49.077Z,1.10
2018-12-16T15:34:16.721Z,1.10
2018-12-16T15:36:44.651Z,1.20
2018-12-16T15:39:12.233Z,1.20
2018-12-16T15:41:39.897Z,1.20
2018-12-16T15:44:07.359Z,1.20
2018-12-16T15:46:34.907Z,1.20
2018-12-16T15:49:02.481Z,1.20
2018-12-16T15:51:30.141Z,1.20
2018-12-16T15:53:57.613Z,1.30
2018-12-16T15:56:25.053Z,1.30
2018-12-16T15:58:52.489Z,1.30
2018-12-16T16:01:19.944Z,1.30
2018-12-16T16:03:47.397Z,1.30
2018-12-16T16:06:15.062Z,1.30
2018-12-16T16:08:42.713Z,1.30
2018-12-16T16:11:10.179Z,1.30
2018-12-16T16:16:05.282Z,1.30
2018-12-16T16:18:32.938Z,1.20
2018-12-16T16:21:00.601Z,1.20
2018-12-16T16:23:28.255Z,1.20
2018-12-16T16:25:55.705Z,1.20
2018-12-16T16:28:23.375Z,1.20
2018-12-16T16:30:51.014Z,1.20
2018-12-16T16:33:18.821Z,1.20
2018-12-16T16:35:46.266Z,1.00
2018-12-16T16:38:13.847Z,0.90
2018-12-16T16:40:41.526Z,0.80
2018-12-16T16:43:09.026Z,0.70
2018-12-16T16:45:36.777Z,0.60
2018-12-16T16:48:04.446Z,0.60
2018-12-16T16:50:31.886Z,0.60
2018-12-16T16:52:59.326Z,0.70
2018-12-16T16:55:26.778Z,0.80
2018-12-16T16:57:54.457Z,0.90
2018-12-16T17:00:22.116Z,0.90
2018-12-16T17:05:17.230Z,1.00
2018-12-16T17:07:44.710Z,1.00
2018-12-16T17:10:12.250Z,0.90
2018-12-16T17:12:39.733Z,0.90
2018-12-16T17:15:07.458Z,0.70
2018-12-16T17:17:34.942Z,0.60
2018-12-16T17:20:02.422Z,0.60
2018-12-16T17:24:57.477Z,0.60
2018-12-16T17:27:25.125Z,0.50
2018-12-16T17:29:52.598Z,0.50
2018-12-16T17:32:20.248Z,0.40
2018-12-16T17:37:15.282Z,0.30
2018-12-16T17:42:10.201Z,0.20
2018-12-16T17:47:05.077Z,0.10
2018-12-16T17:52:00.091Z,0.10
2018-12-16T17:56:55.245Z,0.00
2018-12-16T17:59:22.845Z,0.10
2018-12-16T18:06:45.627Z,0.10
2018-12-16T18:09:13.106Z,0.00
2018-12-16T18:11:40.728Z,0.10
2018-12-16T18:14:08.189Z,0.10
2018-12-16T18:16:35.625Z,0.00
2018-12-16T18:19:03.300Z,0.10
2018-12-16T18:21:30.750Z,0.10
2018-12-16T18:23:58.613Z,0.00
2018-12-16T18:26:26.286Z,-0.10
2018-12-16T18:28:53.929Z,-0.20
2018-12-16T18:33:49.062Z,-0.20
2018-12-16T18:36:16.525Z,-0.20
2018-12-16T18:38:44.151Z,-0.30
2018-12-16T18:43:39.280Z,-0.40
2018-12-16T18:46:06.938Z,-0.40
2018-12-16T18:48:34.589Z,-0.50
2018-12-16T18:51:02.047Z,-0.50
2018-12-16T18:53:29.565Z,-0.50
2018-12-16T18:55:57.897Z,-0.60
2018-12-16T18:58:25.426Z,-0.60
2018-12-16T19:00:52.877Z,-0.70
2018-12-16T19:03:20.386Z,-0.70
2018-12-16T19:08:16.345Z,-0.70
2018-12-16T19:10:43.982Z,-0.70
2018-12-16T19:13:11.585Z,-0.50
2018-12-16T19:15:39.041Z,-0.40
2018-12-16T19:18:06.714Z,-0.30
2018-12-16T19:20:34.356Z,-0.30
2018-12-16T19:23:02.010Z,-0.30
2018-12-16T19:30:24.476Z,-0.20
2018-12-16T19:32:51.917Z,-0.20
2018-12-16T19:35:19.487Z,-0.20
2018-12-16T19:37:47.155Z,-0.30
2018-12-16T19:40:14.609Z,-0.30
2018-12-16T19:45:09.710Z,-0.40
2018-12-16T19:47:37.365Z,-0.40
2018-12-16T19:50:06.529Z,-0.50
2018-12-16T19:52:33.982Z,-0.50
2018-12-16T19:55:01.663Z,-0.50
2018-12-16T19:57:29.221Z,-0.60
2018-12-16T19:59:57.525Z,-0.60
2018-12-16T20:02:25.001Z,-0.60
2018-12-16T20:07:37.696Z,-0.60
2018-12-16T20:10:05.957Z,-0.60
2018-12-16T20:12:33.423Z,-0.60
2018-12-16T20:15:01.087Z,-0.60
2018-12-16T20:17:28.544Z,-0.60
2018-12-16T20:19:56.181Z,-0.60
2018-12-16T20:22:23.651Z,-0.60
2018-12-16T20:24:51.297Z,-0.70
2018-12-16T20:27:18.957Z,-0.70
2018-12-16T20:29:46.613Z,-0.60
2018-12-16T20:32:14.054Z,-0.60
2018-12-16T20:34:41.731Z,-0.70
2018-12-16T20:37:09.387Z,-0.70
2018-12-16T20:39:36.861Z,-0.70
2018-12-16T20:42:04.498Z,-0.70
2018-12-16T20:44:32.153Z,-0.80
2018-12-16T20:46:59.815Z,-0.80
2018-12-16T20:49:27.282Z,-0.90
2018-12-16T20:51:54.725Z,-0.90
2018-12-16T20:54:22.385Z,-0.90
2018-12-16T20:56:49.834Z,-0.90
2018-12-16T20:59:17.341Z,-1.00
2018-12-16T21:01:44.945Z,-1.10
2018-12-16T21:04:12.482Z,-1.10
2018-12-16T21:11:41.562Z,-1.00
2018-12-16T21:17:19.213Z,-1.00
2018-12-16T21:22:14.139Z,-1.00
2018-12-16T21:24:41.797Z,-1.00
2018-12-16T21:27:10.547Z,-1.00
2018-12-16T21:29:38.137Z,-1.00
2018-12-16T21:37:02.545Z,-1.10
2018-12-16T21:41:57.558Z,-1.30
2018-12-16T21:44:25.003Z,-1.30
2018-12-16T21:46:52.558Z,-1.30
2018-12-16T21:49:20.041Z,-1.40
2018-12-16T21:51:47.677Z,-1.40
2018-12-16T21:54:15.138Z,-1.50
2018-12-16T21:56:42.804Z,-1.40
2018-12-16T22:01:37.793Z,-1.60
2018-12-16T22:04:05.361Z,-1.60
2018-12-16T22:06:33.017Z,-1.60
2018-12-16T22:09:00.469Z,-1.70
2018-12-16T22:11:27.921Z,-1.80
2018-12-16T22:13:55.436Z,-1.80
2018-12-16T22:16:23.041Z,-1.80
2018-12-16T22:18:50.577Z,-1.90
2018-12-16T22:21:18.153Z,-1.90
2018-12-16T22:26:13.262Z,-2.00
2018-12-16T22:28:40.887Z,-2.00
2018-12-16T22:31:08.338Z,-2.00
2018-12-16T22:36:03.485Z,-2.00
2018-12-16T22:38:30.944Z,-2.10
2018-12-16T22:40:58.602Z,-2.10
2018-12-16T22:45:53.622Z,-2.10
2018-12-16T22:53:16.189Z,-2.20
2018-12-16T22:55:43.735Z,-2.00
2018-12-16T23:03:38.260Z,-2.00
2018-12-16T23:06:05.910Z,-2.00
2018-12-16T23:08:33.568Z,-1.90
2018-12-16T23:11:01.225Z,-1.90
2018-12-16T23:13:28.701Z,-1.90
2018-12-16T23:15:56.334Z,-1.80
2018-12-16T23:20:51.350Z,-1.70
2018-12-16T23:23:18.798Z,-1.60
2018-12-16T23:25:46.237Z,-1.60
2018-12-16T23:28:13.921Z,-1.80
2018-12-16T23:30:41.474Z,-1.90
2018-12-16T23:33:09.122Z,-1.90
2018-12-16T23:35:36.786Z,-1.90
2018-12-16T23:38:04.490Z,-2.00
2018-12-16T23:40:32.106Z,-2.00
2018-12-16T23:42:59.766Z,-2.20
2018-12-16T23:45:27.423Z,-2.30
2018-12-16T23:47:55.082Z,-2.30
2018-12-16T23:50:22.742Z,-2.30
2018-12-16T23:52:50.398Z,-2.40
2018-12-16T23:55:17.870Z,-2.40
2018-12-16T23:57:45.510Z,-2.50
